Home > Products > Valid Products > TAF

000
FTUS44 KLIX 010500
TAFMSY
TAF
KMSY 010539Z 0106/0206 14007KT P6SM BKN250
     FM011300 13006KT P6SM BKN025
     FM011600 14010KT P6SM BKN035
     FM011700 14011KT P6SM VCTS BKN035CB
     FM020000 15007KT P6SM SCT250=



000
FTUS44 KLIX 010500
TAFBTR
TAF
KBTR 010539Z 0106/0206 11004KT P6SM SCT200
     FM011200 11005KT P6SM BKN025
     FM011500 13008KT P6SM BKN030
     FM011700 15010KT P6SM BKN035
     FM011900 15009KT P6SM VCTS BKN035CB
     FM020000 15005KT P6SM SCT250=



000
FTUS44 KLIX 010500
TAFMCB
TAF
KMCB 010539Z 0106/0206 15004KT P6SM SCT250
     FM011000 16003KT 4SM BR BKN008
     FM011400 15005KT P6SM BKN020
     FM011700 16008KT P6SM BKN035
     FM011900 16008KT P6SM VCTS BKN035CB
     FM020000 16004KT P6SM SCT250=



000
FTUS44 KLIX 010500
TAFNEW
TAF
KNEW 010539Z 0106/0206 14007KT P6SM SCT250
     FM011400 14009KT P6SM BKN025
     FM011700 14011KT P6SM VCTS BKN035CB
     FM020000 15007KT P6SM SCT250=



000
FTUS44 KLIX 010500
TAFGPT
TAF
KGPT 010539Z 0106/0206 15005KT P6SM SCT025
     FM011200 14004KT P6SM BKN025
     FM011500 15010KT P6SM BKN030
     FM011800 15010KT P6SM BKN035
     FM020000 16007KT P6SM SCT250=



000
FTUS44 KLIX 010500
TAFNEW
TAF
KNEW 010539Z 0106/0206 14007KT P6SM SCT250
     FM011400 14009KT P6SM BKN025
     FM011700 14011KT P6SM VCTS BKN035CB
     FM020000 15007KT P6SM SCT250=



000
FTUS44 KLIX 312300
TAFMCB
TAF
KMCB 312329Z 0100/0124 17004KT P6SM SCT250
     FM010500 00000KT P6SM SCT200
     FM011000 00000KT P6SM BKN008
     FM011400 15005KT P6SM BKN025
     FM011700 16008KT P6SM BKN035
     FM012000 16009KT P6SM VCTS BKN035CB=



000
FTUS44 KLIX 312300
TAFGPT
TAF
KGPT 312329Z 0100/0124 15007KT P6SM FEW025
     FM011200 14004KT P6SM BKN025
     FM011500 15010KT P6SM BKN030
     FM011900 15011KT P6SM VCTS BKN035CB=



000
FTUS44 KLIX 312300
TAFNEW
TAF
KNEW 312329Z 0100/0124 14008KT P6SM SCT250
     FM011100 13006KT P6SM BKN025
     FM011400 14009KT P6SM BKN035
     FM011700 14011KT P6SM VCTS BKN035CB=



000
FTUS44 KLIX 312300
TAFBTR
TAF
KBTR 312329Z 0100/0124 16005KT P6SM SCT050
     FM010600 00000KT P6SM SCT250
     FM011100 00000KT P6SM BKN008
     FM011400 13008KT P6SM BKN020
     FM011600 15010KT P6SM BKN035
     FM011900 15009KT P6SM VCTS BKN035CB=



000
FTUS44 KLIX 312300
TAFMSY
TAF
KMSY 312329Z 0100/0124 14007KT P6SM SCT250
     FM011200 13005KT P6SM BKN025
     FM011400 13006KT P6SM BKN035
     FM011700 14011KT P6SM VCTS BKN035CB=



000
FTUS44 KLIX 311700 RRA
TAFGPT
TAF
KGPT 311748Z 3118/0118 14010KT P6SM FEW024
     FM010000 15007KT P6SM SCT250
     FM011200 14006KT P6SM SCT020
     FM011600 14007KT P6SM SCT025=



000
FTUS44 KLIX 311700 RRA
TAFBTR
TAF
KBTR 311748Z 3118/0118 16010KT P6SM BKN019 BKN035
     FM312200 17008KT P6SM SCT035
     FM010200 15005KT P6SM SCT200
     FM011000 11004KT P6SM BKN025
      TEMPO 0111/0113 5SM BR
     FM011400 13009KT P6SM BKN030=



000
FTUS44 KLIX 311700 RRA
TAFMCB
TAF
KMCB 311748Z 3118/0118 19007KT P6SM FEW015 FEW020
     FM010000 VRB03KT P6SM BKN045
     FM011000 00000KT P6SM BKN008
      TEMPO 0111/0113 1/2SM FG BKN001
     FM011300 16008KT P6SM SCT030=



000
FTUS44 KLIX 311700 RRA
TAFNEW
TAF
KNEW 311748Z 3118/0118 14006KT P6SM SCT250
     FM011200 13007KT P6SM SCT020
     FM011300 13008KT P6SM BKN025=



000
FTUS44 KLIX 311700 RRA
TAFMSY
TAF
KMSY 311748Z 3118/0118 17008KT P6SM FEW025 SCT250
     FM010800 13005KT P6SM SCT250
     FM011000 13005KT P6SM SCT025
     FM011200 12006KT P6SM BKN025
     FM011500 14010KT P6SM BKN035=



000
FTUS44 KLIX 311700 RRA
TAFNEW
TAF
KNEW 311748Z 3118/0118 14006KT P6SM SCT250
     FM011200 13007KT P6SM SCT020
     FM011300 13008KT P6SM BKN025=



000
FTUS44 KLIX 311400 AAA
TAFMCB
TAF AMD
KMCB 311451Z 3115/0112 15004KT P6SM SCT004 SCT013
      TEMPO 3115/3116 3SM BR BKN004
     FM311600 15005KT P6SM SCT035
     FM011000 00000KT P6SM BKN008=



000
FTUS44 KLIX 311100 RRA
TAFMCB
TAF
KMCB 311140Z 3112/0112 00000KT P6SM FEW004 BKN017
     FM311400 17006KT P6SM SCT030 BKN120
     FM011000 00000KT P6SM BKN008=



000
FTUS44 KLIX 311100 RRA
TAFBTR
TAF
KBTR 311140Z 3112/0112 08004KT P6SM SCT017 OVC130
     FM311430 16007KT P6SM SCT030 BKN120
     FM011000 11004KT P6SM BKN025=



000
FTUS44 KLIX 311100 RRA
TAFNEW
TAF
KNEW 311140Z 3112/0112 12005KT P6SM FEW020 SCT250
     FM311500 14010KT P6SM SCT030 BKN250=



000
FTUS44 KLIX 311100 RRA
TAFNEW
TAF
KNEW 311140Z 3112/0112 12005KT P6SM FEW020 SCT250
     FM311500 14010KT P6SM SCT030 BKN250=



000
FTUS44 KLIX 311100 RRA
TAFMSY
TAF
KMSY 311140Z 3112/0112 12003KT P6SM FEW020 SCT250
     FM311500 15009KT P6SM SCT030 BKN250=



000
FTUS44 KLIX 311100 RRA
TAFGPT
TAF
KGPT 311140Z 3112/0112 17004KT P6SM SCT017 BKN027
     FM311400 16006KT P6SM SCT025 BKN250
     FM311700 16010KT P6SM SCT035 BKN250
     FM010100 15005KT P6SM SCT250=



000
FTUS44 KLIX 310500
TAFMSY
TAF
KMSY 310539Z 3106/0106 14005KT P6SM SCT035 BKN250
     FM311500 16009KT P6SM SCT025 BKN250
     FM010100 14010KT P6SM FEW015 SCT250=



000
FTUS44 KLIX 310500
TAFMCB
TAF
KMCB 310539Z 3106/0106 17008KT 6SM BR BKN005
      TEMPO 3108/3112 4SM BR OVC003
     FM311500 18007KT P6SM SCT025 BKN250
     FM312100 19011KT P6SM SCT050 SCT200
     FM010000 18005KT P6SM FEW025 SCT250=



000
FTUS44 KLIX 310500
TAFBTR
TAF
KBTR 310539Z 3106/0106 13003KT P6SM FEW030 BKN250
      TEMPO 3109/3113 4SM BR
     FM311600 18006KT P6SM SCT030
     FM010000 17004KT P6SM FEW025 SCT250=



000
FTUS44 KLIX 310500
TAFNEW
TAF
KNEW 310539Z 3106/0106 15005KT P6SM BKN250
     FM311500 16009KT P6SM SCT025 BKN250
     FM010100 14010KT P6SM FEW015 SCT250=



000
FTUS44 KLIX 310500
TAFGPT
TAF
KGPT 310539Z 3106/0106 14003KT P6SM SCT018 SCT030 OVC250
     FM311500 16009KT P6SM SCT025 SCT250
     FM010000 17005KT P6SM SCT250=



000
FTUS44 KLIX 310500
TAFNEW
TAF
KNEW 310539Z 3106/0106 15005KT P6SM BKN250
     FM311500 16009KT P6SM SCT025 BKN250
     FM010100 14010KT P6SM FEW015 SCT250=



000
FTUS44 KLIX 302300 RRA
TAFNEW
TAF
KNEW 302343Z 3100/3124 17014KT 6SM RA OVC025
      TEMPO 3100/3102 VRB15G25KT 2SM TSRA BKN020CB
     FM310230 16008KT P6SM VCSH BKN050
     FM310500 14005KT P6SM BKN100
     FM311700 14009KT P6SM BKN250=



000
FTUS44 KLIX 302300 RRA
TAFBTR
TAF
KBTR 302343Z 3100/3124 17007KT P6SM BKN008 BKN070
      TEMPO 3100/3102 4SM -RA OVC007
     FM310400 17006KT P6SM BKN090
     FM311600 14006KT P6SM SCT030=



000
FTUS44 KLIX 302300 RRA
TAFMCB
TAF
KMCB 302343Z 3100/3124 18006KT P6SM -RA SCT008 BKN060 BKN090
     FM310130 17008KT P6SM OVC035
     FM311200 VRB03KT P6SM BKN150
     FM311700 18007KT P6SM BKN250=



000
FTUS44 KLIX 302300 RRA
TAFGPT
TAF
KGPT 302343Z 3100/3124 VRB03KT P6SM SCT025 BKN150
      TEMPO 3100/3103 VRB15G25KT 1SM TSRA BKN020CB
     FM310330 18010KT P6SM BKN025
     FM310900 16005KT P6SM BKN250
     FM311300 16005KT P6SM BKN250=



000
FTUS44 KLIX 302300 RRA
TAFMSY
TAF
KMSY 302343Z 3100/3124 17010KT 3SM SHRA BKN035 BKN050
      TEMPO 3100/3102 VRB15G25KT 2SM TSRA BKN020CB
     FM310230 16008KT P6SM VCSH BKN050
     FM310500 14005KT P6SM BKN100
     FM311700 14009KT P6SM BKN250=



000
FTUS44 KLIX 301700 RRA
TAFNEW
TAF
KNEW 301759Z 3018/3118 17014KT 6SM RA OVC025
      TEMPO 3018/3022 VRB15G25KT 1SM TSRA BKN020CB
     FM310030 17008KT P6SM BKN090
     FM311400 17007KT P6SM BKN200=



000
FTUS44 KLIX 301700 RRA
TAFNEW
TAF
KNEW 301759Z 3018/3118 17014KT 6SM RA OVC025
      TEMPO 3018/3022 VRB15G25KT 1SM TSRA BKN020CB
     FM310030 17008KT P6SM BKN090
     FM311400 17007KT P6SM BKN200=



000
FTUS44 KLIX 301700 RRA
TAFMCB
TAF
KMCB 301759Z 3018/3118 18009KT 6SM -RA OVC020
      TEMPO 3018/3022 VRB15G25KT 1SM TSRA BKN020CB
     FM310030 17008KT P6SM OVC035
     FM311200 VRB03KT P6SM BKN150
     FM311700 18007KT P6SM BKN250=



000
FTUS44 KLIX 301700 RRA
TAFMSY
TAF
KMSY 301759Z 3018/3118 17013KT 6SM -SHRA OVC025
      TEMPO 3018/3022 VRB15G25KT 2SM TSRA BKN020CB
     FM310030 17010KT P6SM BKN050
     FM310900 14005KT P6SM BKN100
     FM311700 14009KT P6SM BKN250=



000
FTUS44 KLIX 301700 RRA
TAFGPT
TAF
KGPT 301759Z 3018/3118 16013KT 6SM -RA BKN150
      TEMPO 3018/3022 VRB15G25KT 1SM TSRA BKN020CB
     FM310030 18010KT P6SM BKN025
     FM310900 16005KT P6SM BKN250
     FM311300 16005KT P6SM BKN250=



000
FTUS44 KLIX 301700 RRA
TAFBTR
TAF
KBTR 301759Z 3018/3118 19007KT 6SM SHRA OVC020
      TEMPO 3018/3022 VRB15G25KT 2SM TSRA BKN020CB
     FM302300 19007KT P6SM SCT020 OVC070
     FM310000 17006KT P6SM BKN090
     FM310100 17006KT P6SM BKN090=



000
FTUS44 KLIX 301700 AAA
TAFMSY
TAF AMD
KMSY 301709Z 3017/3112 19006KT 4SM RA SCT035 BKN070 BKN110
      TEMPO 3017/3021 1SM TSRA BKN010CB BKN020
     FM310100 17006KT P6SM BKN050=



000
FTUS44 KLIX 301600 AAA
TAFNEW
TAF AMD
KNEW 301607Z 3016/3112 19010KT P6SM VCSH SCT021 BKN035 OVC100
      TEMPO 3016/3020 VRB15G30KT 1/2SM +TSRA BKN020CB
     FM310100 16008KT P6SM BKN050=



000
FTUS44 KLIX 301600 AAA
TAFNEW
TAF AMD
KNEW 301607Z 3016/3112 19010KT P6SM VCSH SCT021 BKN035 OVC100
      TEMPO 3016/3020 VRB15G30KT 1/2SM +TSRA BKN020CB
     FM310100 16008KT P6SM BKN050=



000
FTUS44 KLIX 301300 AAA
TAFMCB
TAF AMD
KMCB 301318Z 3013/3112 12006KT P6SM SCT004 BKN020
      TEMPO 3013/3015 BKN004
     FM301500 17009KT 6SM -SHRA BKN025 OVC050
      TEMPO 3017/3021 3SM TSRA BR BKN020CB
     FM310100 18005KT P6SM BKN050=



000
FTUS44 KLIX 301100 RRA
TAFNEW
TAF
KNEW 301140Z 3012/3112 15010KT P6SM FEW020 SCT100 OVC250
     FM301500 16014KT P6SM VCSH BKN025 OVC050
      TEMPO 3018/3022 3SM TSRA BKN020CB
     FM310100 16008KT P6SM BKN050=



000
FTUS44 KLIX 301100 RRA
TAFGPT
TAF
KGPT 301140Z 3012/3112 15007KT P6SM SCT020 BKN250
     FM301600 15009KT P6SM VCSH SCT030 BKN250
     FM301900 16010KT P6SM VCTS BKN035CB OVC060
     FM310000 16007KT P6SM BKN040=



000
FTUS44 KLIX 301100 RRA
TAFMSY
TAF
KMSY 301140Z 3012/3112 12005KT P6SM FEW025 SCT100 OVC250
     FM301500 17011KT P6SM VCSH BKN025 OVC050
      TEMPO 3018/3022 3SM TSRA BKN020CB
     FM310100 17006KT P6SM BKN050=



000
FTUS44 KLIX 301100 RRA
TAFNEW
TAF
KNEW 301140Z 3012/3112 15010KT P6SM FEW020 SCT100 OVC250
     FM301500 16014KT P6SM VCSH BKN025 OVC050
      TEMPO 3018/3022 3SM TSRA BKN020CB
     FM310100 16008KT P6SM BKN050=



000
FTUS44 KLIX 301100 RRA
TAFBTR
TAF
KBTR 301140Z 3012/3112 10005KT P6SM FEW010 SCT035
     FM301500 17010KT P6SM VCSH BKN025 OVC050
      TEMPO 3016/3020 3SM TSRA BR BKN020CB
     FM310100 18006KT P6SM SCT018 BKN050=



000
FTUS44 KLIX 301100 RRA
TAFMCB
TAF
KMCB 301140Z 3012/3112 08005KT P6SM SCT003 BKN250
     FM301400 17009KT 6SM -SHRA BKN025 OVC050
      TEMPO 3017/3021 3SM TSRA BR BKN020CB
     FM310100 18005KT P6SM BKN050=



000
FTUS44 KLIX 300800 AAA
TAFMCB
TAF AMD
KMCB 300809Z 3008/3106 13003KT P6SM FEW006 SCT040
     FM301100 14004KT 6SM BR VCSH SCT005 BKN015
     FM301400 17009KT 6SM -SHRA BKN025 OVC050
      TEMPO 3017/3021 2SM TSRA BR BKN025CB
     FM310100 18005KT P6SM BKN050=



000
FTUS44 KLIX 300700 AAA
TAFBTR
TAF AMD
KBTR 300759Z 3008/3106 11004KT P6SM VCSH FEW004 SCT022 SCT050
      TEMPO 3010/3014 5SM -SHRA BR BKN020
     FM301400 17010KT 6SM -SHRA BKN025 OVC050
      TEMPO 3016/3020 3SM TSRA BR BKN025CB
     FM310100 18006KT P6SM BKN050=



000
FTUS44 KLIX 300500
TAFNEW
TAF
KNEW 300536Z 3006/3106 15008KT P6SM VCSH SCT020 BKN110
      TEMPO 3010/3014 5SM -SHRA BR SCT015 BKN025
     FM301600 16012KT 6SM -SHRA BKN025 OVC050
      TEMPO 3018/3022 2SM TSRA BKN025CB
     FM310100 16008KT P6SM BKN050=



000
FTUS44 KLIX 300500
TAFBTR
TAF
KBTR 300536Z 3006/3106 11005KT P6SM -RA SCT010 BKN020 OVC040
      TEMPO 3006/3010 5SM -SHRA BKN010
     FM301000 12004KT 5SM BR BKN020
     FM301400 16010KT 6SM -SHRA BKN025 OVC050
      TEMPO 3016/3020 2SM TSRA BR BKN025CB
     FM310100 18006KT P6SM BKN050=



000
FTUS44 KLIX 300500
TAFMCB
TAF
KMCB 300536Z 3006/3106 15005KT P6SM OVC006
     FM301000 15004KT 5SM -RA BR SCT005 OVC012
     FM301400 17009KT 6SM -SHRA BKN025 OVC050
      TEMPO 3017/3021 2SM TSRA BR BKN025CB
     FM310100 18005KT P6SM BKN050=



000
FTUS44 KLIX 300500
TAFMSY
TAF
KMSY 300536Z 3006/3106 15006KT P6SM VCSH FEW012 SCT025 BKN120
      TEMPO 3010/3014 4SM -SHRA BR SCT015 BKN025
     FM301600 17011KT 6SM -SHRA BKN025 OVC050
      TEMPO 3018/3022 2SM TSRA BKN025CB
     FM310100 17007KT P6SM BKN050=



000
FTUS44 KLIX 300500
TAFNEW
TAF
KNEW 300536Z 3006/3106 15008KT P6SM VCSH SCT020 BKN110
      TEMPO 3010/3014 5SM -SHRA BR SCT015 BKN025
     FM301600 16012KT 6SM -SHRA BKN025 OVC050
      TEMPO 3018/3022 2SM TSRA BKN025CB
     FM310100 16008KT P6SM BKN050=



000
FTUS44 KLIX 300500
TAFGPT
TAF
KGPT 300536Z 3006/3106 16007KT P6SM SCT015 BKN110
      TEMPO 3008/3010 BKN018
     FM301400 15009KT P6SM VCSH BKN030 PROB30 3016/3019 4SM -SHRA
     FM301900 16010KT 6SM -SHRA BKN025 OVC050
      TEMPO 3019/3023 3SM -TSRA BKN025CB
     FM310200 17008KT P6SM BKN045=



000
FTUS44 KLIX 300400 AAA
TAFGPT
TAF AMD
KGPT 300448Z 3005/3024 VRB05KT P6SM SCT020 BKN110
      TEMPO 3005/3009 BKN018
     FM301500 15009KT P6SM BKN030 PROB30 3015/3018 4SM -SHRA
     FM301800 16010KT 6SM -SHRA BKN025 OVC050
      TEMPO 3018/3022 3SM -TSRA BKN025CB=



000
FTUS44 KLIX 300400 AAA
TAFMCB
TAF AMD
KMCB 300446Z 3005/3024 13006KT P6SM VCSH SCT007 SCT035 BKN110
      TEMPO 3006/3010 BKN007
     FM301000 12004KT 5SM BR BKN020
     FM301400 17009KT 6SM -SHRA BKN025 OVC050
      TEMPO 3017/3021 2SM TSRA BR BKN025CB=



000
FTUS44 KLIX 292300
TAFMSY
TAF
KMSY 292332Z 3000/3024 14007KT P6SM VCSH SCT022 BKN100
      TEMPO 3000/3004 2SM SHRA SCT008 BKN022
     FM301400 16011KT 6SM -SHRA BKN025 OVC050
      TEMPO 3016/3020 2SM TSRA BKN025CB=



000
FTUS44 KLIX 292300
TAFNEW
TAF
KNEW 292332Z 3000/3024 14008KT P6SM VCSH SCT022 BKN100
      TEMPO 3000/3004 2SM SHRA SCT008 BKN022
     FM301400 16012KT 6SM -SHRA BKN025 OVC050
      TEMPO 3016/3020 2SM TSRA BKN025CB=



000
FTUS44 KLIX 292300
TAFNEW
TAF
KNEW 292332Z 3000/3024 14008KT P6SM VCSH SCT022 BKN100
      TEMPO 3000/3004 2SM SHRA SCT008 BKN022
     FM301400 16012KT 6SM -SHRA BKN025 OVC050
      TEMPO 3016/3020 2SM TSRA BKN025CB=



000
FTUS44 KLIX 292300
TAFBTR
TAF
KBTR 292332Z 3000/3024 12006KT P6SM VCSH SCT030 BKN100
      TEMPO 3000/3004 4SM -SHRA BKN030
     FM301000 13004KT 5SM BR BKN020
     FM301400 16010KT 6SM -SHRA BKN025 OVC050
      TEMPO 3016/3020 2SM TSRA BR BKN025CB=



000
FTUS44 KLIX 292300
TAFMCB
TAF
KMCB 292332Z 3000/3024 13006KT P6SM VCSH SCT035 BKN110
      TEMPO 3000/3002 5SM -SHRA BKN035
     FM301000 12004KT 5SM BR BKN020
     FM301400 17009KT 6SM -SHRA BKN025 OVC050
      TEMPO 3017/3021 2SM TSRA BR BKN025CB=



000
FTUS44 KLIX 292300
TAFGPT
TAF
KGPT 292332Z 3000/3024 VRB05KT P6SM SCT030 BKN110
      TEMPO 3000/3004 5SM -SHRA BKN030
     FM301500 15009KT P6SM BKN030 PROB30 3015/3018 4SM -SHRA
     FM301800 16010KT 6SM -SHRA BKN025 OVC050
      TEMPO 3018/3022 3SM -TSRA BKN025CB=



000
FTUS44 KLIX 291700 RRA
TAFNEW
TAF
KNEW 291741Z 2918/3018 11009KT P6SM VCSH BKN030 BKN050
      TEMPO 2918/2922 VRB15G25KT 3SM TSRA SCT030CB BKN040
     FM300600 15009KT P6SM BKN025=



000
FTUS44 KLIX 291700 RRA
TAFMCB
TAF
KMCB 291741Z 2918/3018 13008KT P6SM SCT040 BKN100
      TEMPO 2920/2924 VRB10G20KT 3SM TSRA SCT030CB BKN040
     FM300600 VRB03KT P6SM OVC025
      TEMPO 3010/3012 5SM BR BKN005=



000
FTUS44 KLIX 291700 RRA
TAFNEW
TAF
KNEW 291741Z 2918/3018 11009KT P6SM VCSH BKN030 BKN050
      TEMPO 2918/2922 VRB15G25KT 3SM TSRA SCT030CB BKN040
     FM300600 15009KT P6SM BKN025=



000
FTUS44 KLIX 291700 RRA
TAFMSY
TAF
KMSY 291741Z 2918/3018 13007KT P6SM VCSH SCT025 BKN050 BKN150
      TEMPO 2918/2922 VRB10G20KT 3SM TSRA SCT030CB BKN040
     FM300000 14007KT P6SM VCTS BKN050CB
     FM300600 15007KT P6SM BKN025=



000
FTUS44 KLIX 291700 RRA
TAFBTR
TAF
KBTR 291741Z 2918/3018 12008KT P6SM VCSH BKN020 BKN060
      TEMPO 2920/2924 VRB10G20KT 3SM TSRA SCT030CB BKN040
     FM300600 13004KT P6SM BKN025=



000
FTUS44 KLIX 291700 RRA
TAFGPT
TAF
KGPT 291741Z 2918/3018 10011G18KT P6SM SCT030 BKN060 BKN200
      TEMPO 2918/2922 VRB10G20KT 3SM TSRA SCT030CB BKN040
     FM300000 14007KT P6SM VCTS BKN050CB
     FM300600 16009KT P6SM BKN025=



000
FTUS44 KLIX 291100
TAFNEW
TAF
KNEW 291138Z 2912/3012 09008KT P6SM BKN100 BKN250
     FM291500 11009KT P6SM VCSH BKN050
      TEMPO 2918/2922 VRB15G25KT 3SM TSRA SCT030CB BKN040
     FM300600 15009KT P6SM BKN025=



000
FTUS44 KLIX 291100
TAFNEW
TAF
KNEW 291138Z 2912/3012 09008KT P6SM BKN100 BKN250
     FM291500 11009KT P6SM VCSH BKN050
      TEMPO 2918/2922 VRB15G25KT 3SM TSRA SCT030CB BKN040
     FM300600 15009KT P6SM BKN025=



000
FTUS44 KLIX 291100
TAFGPT
TAF
KGPT 291138Z 2912/3012 08006KT P6SM BKN100 BKN250
     FM291500 10008KT P6SM VCSH BKN050
      TEMPO 2918/2922 VRB10G20KT 3SM TSRA SCT030CB BKN040
     FM300000 14007KT P6SM VCTS BKN050CB
     FM300600 16009KT P6SM BKN025=



000
FTUS44 KLIX 291100
TAFMSY
TAF
KMSY 291138Z 2912/3012 09006KT P6SM SCT030 BKN100 BKN250
     FM291500 11008KT P6SM VCSH BKN050
      TEMPO 2918/2922 VRB10G20KT 3SM TSRA SCT030CB BKN040
     FM300000 14007KT P6SM VCTS BKN050CB
     FM300600 15007KT P6SM BKN025=



000
FTUS44 KLIX 291100
TAFBTR
TAF
KBTR 291138Z 2912/3012 VRB03KT P6SM BKN090 BKN250
     FM291500 10006KT P6SM VCSH BKN050
      TEMPO 2920/2924 VRB10G20KT 3SM TSRA SCT030CB BKN040
     FM300600 13004KT P6SM BKN025=



000
FTUS44 KLIX 291100
TAFMCB
TAF
KMCB 291138Z 2912/3012 00000KT P6SM BKN250
     FM291500 12004KT P6SM VCSH SCT040 BKN100
      TEMPO 2920/2924 VRB10G20KT 3SM TSRA SCT030CB BKN040
     FM300600 VRB03KT P6SM OVC025
      TEMPO 3010/3012 5SM BR BKN005=



    US Dept of Commerce
    National Oceanic and Atmospheric Administration
    National Weather Service
    1325 East West Highway
    Silver Spring, MD 20910
    Page Author: NWS Internet Services Team
Disclaimer
Information Quality
Credits
Glossary
Privacy Policy
Freedom of Information Act (FOIA)
About Us
Career Opportunities